sensor_id;sensor_type;location;lat;lon;timestamp;temperature;humidity
15707;DHT22;7953;54.302;10.128;2022-12-07T00:02:01;1.50;99.90
15707;DHT22;7953;54.302;10.128;2022-12-07T00:05:20;1.50;99.90
15707;DHT22;7953;54.302;10.128;2022-12-07T00:08:06;1.50;99.90
15707;DHT22;7953;54.302;10.128;2022-12-07T00:10:47;1.40;99.90
15707;DHT22;7953;54.302;10.128;2022-12-07T00:16:50;1.40;99.90
15707;DHT22;7953;54.302;10.128;2022-12-07T00:19:40;1.30;99.90
15707;DHT22;7953;54.302;10.128;2022-12-07T00:22:26;1.30;99.90
15707;DHT22;7953;54.302;10.128;2022-12-07T00:25:06;1.20;99.90
15707;DHT22;7953;54.302;10.128;2022-12-07T00:27:51;1.20;99.90
15707;DHT22;7953;54.302;10.128;2022-12-07T00:30:23;1.20;99.90
15707;DHT22;7953;54.302;10.128;2022-12-07T00:33:12;1.20;99.90
15707;DHT22;7953;54.302;10.128;2022-12-07T00:35:45;1.20;99.90
15707;DHT22;7953;54.302;10.128;2022-12-07T00:38:20;1.30;99.90
15707;DHT22;7953;54.302;10.128;2022-12-07T00:44:28;1.40;99.90
15707;DHT22;7953;54.302;10.128;2022-12-07T00:47:02;1.50;99.90
15707;DHT22;7953;54.302;10.128;2022-12-07T00:49:30;1.50;99.90
15707;DHT22;7953;54.302;10.128;2022-12-07T00:51:57;1.50;99.90
15707;DHT22;7953;54.302;10.128;2022-12-07T00:54:24;1.50;99.90
15707;DHT22;7953;54.302;10.128;2022-12-07T00:56:51;1.50;99.90
15707;DHT22;7953;54.302;10.128;2022-12-07T00:59:21;1.50;99.90
15707;DHT22;7953;54.302;10.128;2022-12-07T01:01:52;1.50;99.90
15707;DHT22;7953;54.302;10.128;2022-12-07T01:04:32;1.60;99.90
15707;DHT22;7953;54.302;10.128;2022-12-07T01:07:36;1.50;99.90
15707;DHT22;7953;54.302;10.128;2022-12-07T01:10:22;1.60;99.90
15707;DHT22;7953;54.302;10.128;2022-12-07T01:12:57;1.60;99.90
15707;DHT22;7953;54.302;10.128;2022-12-07T01:15:26;1.60;99.90
15707;DHT22;7953;54.302;10.128;2022-12-07T01:17:53;1.70;99.90
15707;DHT22;7953;54.302;10.128;2022-12-07T01:20:26;1.70;99.90
15707;DHT22;7953;54.302;10.128;2022-12-07T01:23:14;1.70;99.90
15707;DHT22;7953;54.302;10.128;2022-12-07T01:25:44;1.80;99.90
15707;DHT22;7953;54.302;10.128;2022-12-07T01:28:14;1.80;99.90
15707;DHT22;7953;54.302;10.128;2022-12-07T01:30:54;1.90;99.90
15707;DHT22;7953;54.302;10.128;2022-12-07T01:33:21;1.90;99.90
15707;DHT22;7953;54.302;10.128;2022-12-07T01:35:47;1.90;99.90
15707;DHT22;7953;54.302;10.128;2022-12-07T01:38:14;1.90;99.90
15707;DHT22;7953;54.302;10.128;2022-12-07T01:40:41;2.00;99.90
15707;DHT22;7953;54.302;10.128;2022-12-07T01:43:14;1.90;99.90
15707;DHT22;7953;54.302;10.128;2022-12-07T01:45:44;2.00;99.90
15707;DHT22;7953;54.302;10.128;2022-12-07T01:48:13;2.00;99.90
15707;DHT22;7953;54.302;10.128;2022-12-07T01:50:41;2.00;99.90
15707;DHT22;7953;54.302;10.128;2022-12-07T01:53:10;2.10;99.90
15707;DHT22;7953;54.302;10.128;2022-12-07T01:55:40;2.10;99.90
15707;DHT22;7953;54.302;10.128;2022-12-07T01:58:08;2.10;99.90
15707;DHT22;7953;54.302;10.128;2022-12-07T02:00:35;2.10;99.90
15707;DHT22;7953;54.302;10.128;2022-12-07T02:03:07;2.10;99.90
15707;DHT22;7953;54.302;10.128;2022-12-07T02:05:38;2.10;99.90
15707;DHT22;7953;54.302;10.128;2022-12-07T02:08:07;2.10;99.90
15707;DHT22;7953;54.302;10.128;2022-12-07T02:10:35;2.10;99.90
15707;DHT22;7953;54.302;10.128;2022-12-07T02:13:08;2.10;99.90
15707;DHT22;7953;54.302;10.128;2022-12-07T02:15:51;2.10;99.90
15707;DHT22;7953;54.302;10.128;2022-12-07T02:18:28;2.10;99.90
15707;DHT22;7953;54.302;10.128;2022-12-07T02:21:03;2.10;99.90
15707;DHT22;7953;54.302;10.128;2022-12-07T02:23:46;2.10;99.90
15707;DHT22;7953;54.302;10.128;2022-12-07T02:26:37;2.20;99.90
15707;DHT22;7953;54.302;10.128;2022-12-07T02:29:16;2.20;99.90
15707;DHT22;7953;54.302;10.128;2022-12-07T02:31:48;2.20;99.90
15707;DHT22;7953;54.302;10.128;2022-12-07T02:34:21;2.20;99.90
15707;DHT22;7953;54.302;10.128;2022-12-07T02:36:54;2.10;99.90
15707;DHT22;7953;54.302;10.128;2022-12-07T02:39:31;2.10;99.90
15707;DHT22;7953;54.302;10.128;2022-12-07T02:42:05;2.10;99.90
15707;DHT22;7953;54.302;10.128;2022-12-07T02:44:36;2.10;99.90
15707;DHT22;7953;54.302;10.128;2022-12-07T02:47:06;2.10;99.90
15707;DHT22;7953;54.302;10.128;2022-12-07T02:49:36;2.00;99.90
15707;DHT22;7953;54.302;10.128;2022-12-07T02:52:04;2.00;99.90
15707;DHT22;7953;54.302;10.128;2022-12-07T02:54:36;2.00;99.90
15707;DHT22;7953;54.302;10.128;2022-12-07T02:57:12;2.00;99.90
15707;DHT22;7953;54.302;10.128;2022-12-07T02:59:52;1.90;99.90
15707;DHT22;7953;54.302;10.128;2022-12-07T03:02:27;1.90;99.90
15707;DHT22;7953;54.302;10.128;2022-12-07T03:05:04;1.90;99.90
15707;DHT22;7953;54.302;10.128;2022-12-07T03:07:39;1.90;99.90
15707;DHT22;7953;54.302;10.128;2022-12-07T03:10:17;1.90;99.90
15707;DHT22;7953;54.302;10.128;2022-12-07T03:12:52;1.90;99.90
15707;DHT22;7953;54.302;10.128;2022-12-07T03:15:29;1.80;99.90
15707;DHT22;7953;54.302;10.128;2022-12-07T03:17:57;1.80;99.90
15707;DHT22;7953;54.302;10.128;2022-12-07T03:20:26;1.80;99.90
15707;DHT22;7953;54.302;10.128;2022-12-07T03:22:54;1.80;99.90
15707;DHT22;7953;54.302;10.128;2022-12-07T03:25:22;1.80;99.90
15707;DHT22;7953;54.302;10.128;2022-12-07T03:27:53;1.80;99.90
15707;DHT22;7953;54.302;10.128;2022-12-07T03:30:24;1.80;99.90
15707;DHT22;7953;54.302;10.128;2022-12-07T03:32:59;1.80;99.90
15707;DHT22;7953;54.302;10.128;2022-12-07T03:35:32;1.80;99.90
15707;DHT22;7953;54.302;10.128;2022-12-07T03:38:02;1.70;99.90
15707;DHT22;7953;54.302;10.128;2022-12-07T03:40:35;1.70;99.90
15707;DHT22;7953;54.302;10.128;2022-12-07T03:43:04;1.70;99.90
15707;DHT22;7953;54.302;10.128;2022-12-07T03:45:37;1.70;99.90
15707;DHT22;7953;54.302;10.128;2022-12-07T03:48:10;1.70;99.90
15707;DHT22;7953;54.302;10.128;2022-12-07T03:50:44;1.70;99.90
15707;DHT22;7953;54.302;10.128;2022-12-07T03:53:16;1.70;99.90
15707;DHT22;7953;54.302;10.128;2022-12-07T03:55:46;1.70;99.90
15707;DHT22;7953;54.302;10.128;2022-12-07T03:58:16;1.70;99.90
15707;DHT22;7953;54.302;10.128;2022-12-07T04:00:46;1.70;99.90
15707;DHT22;7953;54.302;10.128;2022-12-07T04:03:16;1.70;99.90
15707;DHT22;7953;54.302;10.128;2022-12-07T04:05:45;1.70;99.90
15707;DHT22;7953;54.302;10.128;2022-12-07T04:08:12;1.70;99.90
15707;DHT22;7953;54.302;10.128;2022-12-07T04:10:39;1.70;99.90
15707;DHT22;7953;54.302;10.128;2022-12-07T04:13:06;1.70;99.90
15707;DHT22;7953;54.302;10.128;2022-12-07T04:15:33;1.70;99.90
15707;DHT22;7953;54.302;10.128;2022-12-07T04:18:00;1.70;99.90
15707;DHT22;7953;54.302;10.128;2022-12-07T04:20:28;1.70;99.90
15707;DHT22;7953;54.302;10.128;2022-12-07T04:22:55;1.70;99.90
15707;DHT22;7953;54.302;10.128;2022-12-07T04:25:22;1.70;99.90
15707;DHT22;7953;54.302;10.128;2022-12-07T04:27:49;1.70;99.90
15707;DHT22;7953;54.302;10.128;2022-12-07T04:30:16;1.70;99.90
15707;DHT22;7953;54.302;10.128;2022-12-07T04:32:43;1.70;99.90
15707;DHT22;7953;54.302;10.128;2022-12-07T04:35:10;1.70;99.90
15707;DHT22;7953;54.302;10.128;2022-12-07T04:37:38;1.70;99.90
15707;DHT22;7953;54.302;10.128;2022-12-07T04:40:07;1.70;99.90
15707;DHT22;7953;54.302;10.128;2022-12-07T04:42:36;1.70;99.90
15707;DHT22;7953;54.302;10.128;2022-12-07T04:45:04;1.60;99.90
15707;DHT22;7953;54.302;10.128;2022-12-07T04:47:31;1.60;99.90
15707;DHT22;7953;54.302;10.128;2022-12-07T04:49:58;1.50;99.90
15707;DHT22;7953;54.302;10.128;2022-12-07T04:52:24;1.50;99.90
15707;DHT22;7953;54.302;10.128;2022-12-07T04:54:53;1.50;99.90
15707;DHT22;7953;54.302;10.128;2022-12-07T04:57:20;1.50;99.90
15707;DHT22;7953;54.302;10.128;2022-12-07T04:59:47;1.50;99.90
15707;DHT22;7953;54.302;10.128;2022-12-07T05:02:14;1.40;99.90
15707;DHT22;7953;54.302;10.128;2022-12-07T05:04:41;1.40;99.90
15707;DHT22;7953;54.302;10.128;2022-12-07T05:07:08;1.40;99.90
15707;DHT22;7953;54.302;10.128;2022-12-07T05:09:35;1.40;99.90
15707;DHT22;7953;54.302;10.128;2022-12-07T05:12:03;1.30;99.90
15707;DHT22;7953;54.302;10.128;2022-12-07T05:14:30;1.30;99.90
15707;DHT22;7953;54.302;10.128;2022-12-07T05:16:57;1.30;99.90
15707;DHT22;7953;54.302;10.128;2022-12-07T05:19:24;1.30;99.90
15707;DHT22;7953;54.302;10.128;2022-12-07T05:21:51;1.20;99.90
15707;DHT22;7953;54.302;10.128;2022-12-07T05:24:18;1.20;99.90
15707;DHT22;7953;54.302;10.128;2022-12-07T05:26:46;1.20;99.90
15707;DHT22;7953;54.302;10.128;2022-12-07T05:29:16;1.20;99.90
15707;DHT22;7953;54.302;10.128;2022-12-07T05:31:43;1.10;99.90
15707;DHT22;7953;54.302;10.128;2022-12-07T05:34:10;1.10;99.90
15707;DHT22;7953;54.302;10.128;2022-12-07T05:36:37;1.10;99.90
15707;DHT22;7953;54.302;10.128;2022-12-07T05:39:04;1.00;99.90
15707;DHT22;7953;54.302;10.128;2022-12-07T05:41:30;1.00;99.90
15707;DHT22;7953;54.302;10.128;2022-12-07T05:44:16;1.00;99.90
15707;DHT22;7953;54.302;10.128;2022-12-07T05:46:43;1.00;99.90
15707;DHT22;7953;54.302;10.128;2022-12-07T05:49:10;1.00;99.90
15707;DHT22;7953;54.302;10.128;2022-12-07T05:51:37;0.90;99.90
15707;DHT22;7953;54.302;10.128;2022-12-07T05:54:04;0.90;99.90
15707;DHT22;7953;54.302;10.128;2022-12-07T05:56:31;0.90;99.90
15707;DHT22;7953;54.302;10.128;2022-12-07T05:58:58;1.00;99.90
15707;DHT22;7953;54.302;10.128;2022-12-07T06:01:44;0.90;99.90
15707;DHT22;7953;54.302;10.128;2022-12-07T06:04:11;0.90;99.90
15707;DHT22;7953;54.302;10.128;2022-12-07T06:06:38;0.90;99.90
15707;DHT22;7953;54.302;10.128;2022-12-07T06:09:07;0.80;99.90
15707;DHT22;7953;54.302;10.128;2022-12-07T06:11:34;0.80;99.90
15707;DHT22;7953;54.302;10.128;2022-12-07T06:14:25;0.80;99.90
15707;DHT22;7953;54.302;10.128;2022-12-07T06:16:55;0.80;99.90
15707;DHT22;7953;54.302;10.128;2022-12-07T06:19:25;0.80;99.90
15707;DHT22;7953;54.302;10.128;2022-12-07T06:21:53;0.70;99.90
15707;DHT22;7953;54.302;10.128;2022-12-07T06:24:20;0.70;99.90
15707;DHT22;7953;54.302;10.128;2022-12-07T06:26:47;0.70;99.90
15707;DHT22;7953;54.302;10.128;2022-12-07T06:29:14;0.70;99.90
15707;DHT22;7953;54.302;10.128;2022-12-07T06:31:41;0.70;99.90
15707;DHT22;7953;54.302;10.128;2022-12-07T06:34:12;0.70;99.90
15707;DHT22;7953;54.302;10.128;2022-12-07T06:36:39;0.70;99.90
15707;DHT22;7953;54.302;10.128;2022-12-07T06:39:06;0.70;99.90
15707;DHT22;7953;54.302;10.128;2022-12-07T06:41:34;0.60;99.90
15707;DHT22;7953;54.302;10.128;2022-12-07T06:44:02;0.60;99.90
15707;DHT22;7953;54.302;10.128;2022-12-07T06:46:30;0.70;99.90
15707;DHT22;7953;54.302;10.128;2022-12-07T06:49:00;0.70;99.90
15707;DHT22;7953;54.302;10.128;2022-12-07T06:51:29;0.60;99.90
15707;DHT22;7953;54.302;10.128;2022-12-07T06:53:56;0.60;99.90
15707;DHT22;7953;54.302;10.128;2022-12-07T06:56:23;0.60;99.90
15707;DHT22;7953;54.302;10.128;2022-12-07T06:58:49;0.60;99.90
15707;DHT22;7953;54.302;10.128;2022-12-07T07:01:17;0.60;99.90
15707;DHT22;7953;54.302;10.128;2022-12-07T07:03:46;0.70;99.90
15707;DHT22;7953;54.302;10.128;2022-12-07T07:06:16;0.70;99.90
15707;DHT22;7953;54.302;10.128;2022-12-07T07:08:45;0.70;99.90
15707;DHT22;7953;54.302;10.128;2022-12-07T07:11:12;0.70;99.90
15707;DHT22;7953;54.302;10.128;2022-12-07T07:13:50;0.70;99.90
15707;DHT22;7953;54.302;10.128;2022-12-07T07:16:28;0.70;99.90
15707;DHT22;7953;54.302;10.128;2022-12-07T07:18:55;0.70;99.90
15707;DHT22;7953;54.302;10.128;2022-12-07T07:21:25;0.70;99.90
15707;DHT22;7953;54.302;10.128;2022-12-07T07:23:53;0.70;99.90
15707;DHT22;7953;54.302;10.128;2022-12-07T07:26:24;0.70;99.90
15707;DHT22;7953;54.302;10.128;2022-12-07T07:28:51;0.70;99.90
15707;DHT22;7953;54.302;10.128;2022-12-07T07:31:18;0.70;99.90
15707;DHT22;7953;54.302;10.128;2022-12-07T07:33:47;0.70;99.90
15707;DHT22;7953;54.302;10.128;2022-12-07T07:36:14;0.60;99.90
15707;DHT22;7953;54.302;10.128;2022-12-07T07:38:41;0.60;99.90
15707;DHT22;7953;54.302;10.128;2022-12-07T07:41:12;0.60;99.90
15707;DHT22;7953;54.302;10.128;2022-12-07T07:43:45;0.60;99.90
15707;DHT22;7953;54.302;10.128;2022-12-07T07:46:14;0.60;99.90
15707;DHT22;7953;54.302;10.128;2022-12-07T07:48:41;0.60;99.90
15707;DHT22;7953;54.302;10.128;2022-12-07T07:51:08;0.60;99.90
15707;DHT22;7953;54.302;10.128;2022-12-07T07:53:37;0.60;99.90
15707;DHT22;7953;54.302;10.128;2022-12-07T07:56:04;0.60;99.90
15707;DHT22;7953;54.302;10.128;2022-12-07T07:58:34;0.60;99.90
15707;DHT22;7953;54.302;10.128;2022-12-07T08:01:04;0.60;99.90
15707;DHT22;7953;54.302;10.128;2022-12-07T08:03:31;0.60;99.90
15707;DHT22;7953;54.302;10.128;2022-12-07T08:05:58;0.70;99.90
15707;DHT22;7953;54.302;10.128;2022-12-07T08:08:25;0.80;99.90
15707;DHT22;7953;54.302;10.128;2022-12-07T08:10:51;0.80;99.90
15707;DHT22;7953;54.302;10.128;2022-12-07T08:13:24;0.80;99.90
15707;DHT22;7953;54.302;10.128;2022-12-07T08:15:55;0.80;99.90
15707;DHT22;7953;54.302;10.128;2022-12-07T08:18:22;0.80;99.90
15707;DHT22;7953;54.302;10.128;2022-12-07T08:20:59;0.90;99.90
15707;DHT22;7953;54.302;10.128;2022-12-07T08:23:26;0.90;99.90
15707;DHT22;7953;54.302;10.128;2022-12-07T08:25:53;0.90;99.90
15707;DHT22;7953;54.302;10.128;2022-12-07T08:28:20;0.90;99.90
15707;DHT22;7953;54.302;10.128;2022-12-07T08:30:50;0.90;99.90
15707;DHT22;7953;54.302;10.128;2022-12-07T08:33:19;0.90;99.90
15707;DHT22;7953;54.302;10.128;2022-12-07T08:35:50;0.90;99.90
15707;DHT22;7953;54.302;10.128;2022-12-07T08:38:17;0.90;99.90
15707;DHT22;7953;54.302;10.128;2022-12-07T08:40:45;1.00;99.90
15707;DHT22;7953;54.302;10.128;2022-12-07T08:43:12;1.00;99.90
15707;DHT22;7953;54.302;10.128;2022-12-07T08:45:40;1.10;99.90
15707;DHT22;7953;54.302;10.128;2022-12-07T08:48:09;1.10;99.90
15707;DHT22;7953;54.302;10.128;2022-12-07T08:50:46;1.10;99.90
15707;DHT22;7953;54.302;10.128;2022-12-07T08:53:13;1.10;99.90
15707;DHT22;7953;54.302;10.128;2022-12-07T08:55:41;1.20;99.90
15707;DHT22;7953;54.302;10.128;2022-12-07T08:58:11;1.10;99.90
15707;DHT22;7953;54.302;10.128;2022-12-07T09:00:38;1.20;99.90
15707;DHT22;7953;54.302;10.128;2022-12-07T09:03:05;1.20;99.90
15707;DHT22;7953;54.302;10.128;2022-12-07T09:05:35;1.30;99.90
15707;DHT22;7953;54.302;10.128;2022-12-07T09:08:08;1.30;99.90
15707;DHT22;7953;54.302;10.128;2022-12-07T09:10:41;1.30;99.90
15707;DHT22;7953;54.302;10.128;2022-12-07T09:13:08;1.30;99.90
15707;DHT22;7953;54.302;10.128;2022-12-07T09:15:35;1.30;99.90
15707;DHT22;7953;54.302;10.128;2022-12-07T09:18:05;1.40;99.90
15707;DHT22;7953;54.302;10.128;2022-12-07T09:20:35;1.40;99.90
15707;DHT22;7953;54.302;10.128;2022-12-07T09:23:05;1.40;99.90
15707;DHT22;7953;54.302;10.128;2022-12-07T09:25:32;1.40;99.90
15707;DHT22;7953;54.302;10.128;2022-12-07T09:27:59;1.50;99.90
15707;DHT22;7953;54.302;10.128;2022-12-07T09:30:53;1.40;99.90
15707;DHT22;7953;54.302;10.128;2022-12-07T09:33:22;1.50;99.90
15707;DHT22;7953;54.302;10.128;2022-12-07T09:36:00;1.50;99.90
15707;DHT22;7953;54.302;10.128;2022-12-07T09:38:30;1.50;99.90
15707;DHT22;7953;54.302;10.128;2022-12-07T09:41:03;1.50;99.90
15707;DHT22;7953;54.302;10.128;2022-12-07T09:43:34;1.50;99.90
15707;DHT22;7953;54.302;10.128;2022-12-07T09:46:02;1.60;99.90
15707;DHT22;7953;54.302;10.128;2022-12-07T09:48:32;1.60;99.90
15707;DHT22;7953;54.302;10.128;2022-12-07T09:51:13;1.60;99.90
15707;DHT22;7953;54.302;10.128;2022-12-07T09:53:46;1.70;99.90
15707;DHT22;7953;54.302;10.128;2022-12-07T09:56:14;1.70;99.90
15707;DHT22;7953;54.302;10.128;2022-12-07T09:58:42;1.70;99.90
15707;DHT22;7953;54.302;10.128;2022-12-07T10:01:16;1.70;99.90
15707;DHT22;7953;54.302;10.128;2022-12-07T10:03:50;1.70;99.90
15707;DHT22;7953;54.302;10.128;2022-12-07T10:06:18;1.70;99.90
15707;DHT22;7953;54.302;10.128;2022-12-07T10:08:48;1.70;99.90
15707;DHT22;7953;54.302;10.128;2022-12-07T10:11:15;1.70;99.90
15707;DHT22;7953;54.302;10.128;2022-12-07T10:13:43;1.70;99.90
15707;DHT22;7953;54.302;10.128;2022-12-07T10:16:37;1.80;99.90
15707;DHT22;7953;54.302;10.128;2022-12-07T10:19:22;1.80;99.90
15707;DHT22;7953;54.302;10.128;2022-12-07T10:22:03;1.90;99.90
15707;DHT22;7953;54.302;10.128;2022-12-07T10:24:31;1.90;99.90
15707;DHT22;7953;54.302;10.128;2022-12-07T10:26:58;1.90;99.90
15707;DHT22;7953;54.302;10.128;2022-12-07T10:32:01;1.90;99.90
15707;DHT22;7953;54.302;10.128;2022-12-07T10:34:29;1.90;99.90
15707;DHT22;7953;54.302;10.128;2022-12-07T10:37:15;2.00;99.90
15707;DHT22;7953;54.302;10.128;2022-12-07T10:39:47;2.00;99.90
15707;DHT22;7953;54.302;10.128;2022-12-07T10:42:19;2.00;99.90
15707;DHT22;7953;54.302;10.128;2022-12-07T10:44:46;2.00;99.90
15707;DHT22;7953;54.302;10.128;2022-12-07T10:47:29;2.00;99.90
15707;DHT22;7953;54.302;10.128;2022-12-07T10:50:17;2.00;99.90
15707;DHT22;7953;54.302;10.128;2022-12-07T10:53:09;2.10;99.90
15707;DHT22;7953;54.302;10.128;2022-12-07T10:55:54;2.20;99.90
15707;DHT22;7953;54.302;10.128;2022-12-07T10:58:35;2.20;99.90
15707;DHT22;7953;54.302;10.128;2022-12-07T11:01:10;2.30;99.90
15707;DHT22;7953;54.302;10.128;2022-12-07T11:03:50;2.30;99.90
15707;DHT22;7953;54.302;10.128;2022-12-07T11:06:27;2.30;99.90
15707;DHT22;7953;54.302;10.128;2022-12-07T11:09:14;2.40;99.90
15707;DHT22;7953;54.302;10.128;2022-12-07T11:11:50;2.40;99.90
15707;DHT22;7953;54.302;10.128;2022-12-07T11:14:24;2.50;99.90
15707;DHT22;7953;54.302;10.128;2022-12-07T11:16:57;2.60;99.90
15707;DHT22;7953;54.302;10.128;2022-12-07T11:19:39;2.60;99.90
15707;DHT22;7953;54.302;10.128;2022-12-07T11:22:14;2.60;99.90
15707;DHT22;7953;54.302;10.128;2022-12-07T11:24:49;2.60;99.90
15707;DHT22;7953;54.302;10.128;2022-12-07T11:27:26;2.70;99.90
15707;DHT22;7953;54.302;10.128;2022-12-07T11:30:08;2.60;99.90
15707;DHT22;7953;54.302;10.128;2022-12-07T11:32:54;2.70;99.90
15707;DHT22;7953;54.302;10.128;2022-12-07T11:35:30;2.70;99.90
15707;DHT22;7953;54.302;10.128;2022-12-07T11:38:07;2.70;99.90
15707;DHT22;7953;54.302;10.128;2022-12-07T11:40:36;2.70;99.90
15707;DHT22;7953;54.302;10.128;2022-12-07T11:43:13;2.70;99.90
15707;DHT22;7953;54.302;10.128;2022-12-07T11:45:42;2.70;99.90
15707;DHT22;7953;54.302;10.128;2022-12-07T11:48:14;2.70;99.90
15707;DHT22;7953;54.302;10.128;2022-12-07T11:50:46;2.70;99.90
15707;DHT22;7953;54.302;10.128;2022-12-07T11:53:17;2.70;99.90
15707;DHT22;7953;54.302;10.128;2022-12-07T11:55:50;2.70;99.90
15707;DHT22;7953;54.302;10.128;2022-12-07T11:58:35;2.70;99.90
15707;DHT22;7953;54.302;10.128;2022-12-07T12:01:13;2.80;99.90
15707;DHT22;7953;54.302;10.128;2022-12-07T12:03:44;2.80;99.90
15707;DHT22;7953;54.302;10.128;2022-12-07T12:06:11;2.80;99.90
15707;DHT22;7953;54.302;10.128;2022-12-07T12:08:42;2.80;99.90
15707;DHT22;7953;54.302;10.128;2022-12-07T12:11:21;2.90;99.90
15707;DHT22;7953;54.302;10.128;2022-12-07T12:14:16;2.90;99.90
15707;DHT22;7953;54.302;10.128;2022-12-07T12:17:12;2.90;99.90
15707;DHT22;7953;54.302;10.128;2022-12-07T12:19:42;2.90;99.90
15707;DHT22;7953;54.302;10.128;2022-12-07T12:22:16;2.90;99.90
15707;DHT22;7953;54.302;10.128;2022-12-07T12:24:46;2.80;99.90
15707;DHT22;7953;54.302;10.128;2022-12-07T12:27:21;2.80;99.90
15707;DHT22;7953;54.302;10.128;2022-12-07T12:29:55;2.80;99.90
15707;DHT22;7953;54.302;10.128;2022-12-07T12:32:28;2.80;99.90
15707;DHT22;7953;54.302;10.128;2022-12-07T12:35:00;2.80;99.90
15707;DHT22;7953;54.302;10.128;2022-12-07T12:37:40;2.80;99.90
15707;DHT22;7953;54.302;10.128;2022-12-07T12:40:38;2.80;99.90
15707;DHT22;7953;54.302;10.128;2022-12-07T12:46:52;2.70;99.90
15707;DHT22;7953;54.302;10.128;2022-12-07T12:49:57;2.60;99.90
15707;DHT22;7953;54.302;10.128;2022-12-07T12:52:56;2.60;99.90
15707;DHT22;7953;54.302;10.128;2022-12-07T12:58:37;2.50;99.90
15707;DHT22;7953;54.302;10.128;2022-12-07T13:04:24;2.50;99.90
15707;DHT22;7953;54.302;10.128;2022-12-07T13:06:52;2.50;99.90
15707;DHT22;7953;54.302;10.128;2022-12-07T13:09:22;2.50;99.90
15707;DHT22;7953;54.302;10.128;2022-12-07T13:11:54;2.40;99.90
15707;DHT22;7953;54.302;10.128;2022-12-07T13:14:52;2.50;99.90
15707;DHT22;7953;54.302;10.128;2022-12-07T13:20:52;2.40;99.90
15707;DHT22;7953;54.302;10.128;2022-12-07T13:23:30;2.30;99.90
15707;DHT22;7953;54.302;10.128;2022-12-07T13:26:15;2.20;99.90
15707;DHT22;7953;54.302;10.128;2022-12-07T13:28:44;2.10;99.90
15707;DHT22;7953;54.302;10.128;2022-12-07T13:31:26;2.20;99.90
15707;DHT22;7953;54.302;10.128;2022-12-07T13:33:57;2.10;99.90
15707;DHT22;7953;54.302;10.128;2022-12-07T13:36:27;2.10;99.90
15707;DHT22;7953;54.302;10.128;2022-12-07T13:38:58;2.00;99.90
15707;DHT22;7953;54.302;10.128;2022-12-07T13:41:26;2.00;99.90
15707;DHT22;7953;54.302;10.128;2022-12-07T13:44:00;2.00;99.90
15707;DHT22;7953;54.302;10.128;2022-12-07T13:46:37;1.90;99.90
15707;DHT22;7953;54.302;10.128;2022-12-07T13:49:19;1.90;99.90
15707;DHT22;7953;54.302;10.128;2022-12-07T13:51:48;1.90;99.90
15707;DHT22;7953;54.302;10.128;2022-12-07T13:54:16;1.90;99.90
15707;DHT22;7953;54.302;10.128;2022-12-07T13:56:43;1.90;99.90
15707;DHT22;7953;54.302;10.128;2022-12-07T13:59:14;1.90;99.90
15707;DHT22;7953;54.302;10.128;2022-12-07T14:01:43;1.80;99.90
15707;DHT22;7953;54.302;10.128;2022-12-07T14:04:32;1.80;99.90
15707;DHT22;7953;54.302;10.128;2022-12-07T14:07:17;1.70;99.90
15707;DHT22;7953;54.302;10.128;2022-12-07T14:09:55;1.70;99.90
15707;DHT22;7953;54.302;10.128;2022-12-07T14:12:22;1.70;99.90
15707;DHT22;7953;54.302;10.128;2022-12-07T14:14:49;1.60;99.90
15707;DHT22;7953;54.302;10.128;2022-12-07T14:17:19;1.60;99.90
15707;DHT22;7953;54.302;10.128;2022-12-07T14:19:50;1.60;99.90
15707;DHT22;7953;54.302;10.128;2022-12-07T14:22:26;1.60;99.90
15707;DHT22;7953;54.302;10.128;2022-12-07T14:24:59;1.60;99.90
15707;DHT22;7953;54.302;10.128;2022-12-07T14:27:31;1.50;99.90
15707;DHT22;7953;54.302;10.128;2022-12-07T14:30:00;1.50;99.90
15707;DHT22;7953;54.302;10.128;2022-12-07T14:32:28;1.50;99.90
15707;DHT22;7953;54.302;10.128;2022-12-07T14:35:01;1.50;99.90
15707;DHT22;7953;54.302;10.128;2022-12-07T14:37:30;1.50;99.90
15707;DHT22;7953;54.302;10.128;2022-12-07T14:39:57;1.50;99.90
15707;DHT22;7953;54.302;10.128;2022-12-07T14:42:27;1.50;99.90
15707;DHT22;7953;54.302;10.128;2022-12-07T14:44:55;1.40;99.90
15707;DHT22;7953;54.302;10.128;2022-12-07T14:47:22;1.40;99.90
15707;DHT22;7953;54.302;10.128;2022-12-07T14:49:49;1.40;99.90
15707;DHT22;7953;54.302;10.128;2022-12-07T14:52:18;1.30;99.90
15707;DHT22;7953;54.302;10.128;2022-12-07T14:54:47;1.30;99.90
15707;DHT22;7953;54.302;10.128;2022-12-07T14:57:14;1.20;99.90
15707;DHT22;7953;54.302;10.128;2022-12-07T14:59:41;1.20;99.90
15707;DHT22;7953;54.302;10.128;2022-12-07T15:02:11;1.20;99.90
15707;DHT22;7953;54.302;10.128;2022-12-07T15:04:38;1.20;99.90
15707;DHT22;7953;54.302;10.128;2022-12-07T15:07:09;1.10;99.90
15707;DHT22;7953;54.302;10.128;2022-12-07T15:09:36;1.10;99.90
15707;DHT22;7953;54.302;10.128;2022-12-07T15:12:05;1.10;99.90
15707;DHT22;7953;54.302;10.128;2022-12-07T15:14:32;1.00;99.90
15707;DHT22;7953;54.302;10.128;2022-12-07T15:16:59;1.00;99.90
15707;DHT22;7953;54.302;10.128;2022-12-07T15:19:26;1.00;99.90
15707;DHT22;7953;54.302;10.128;2022-12-07T15:21:53;1.00;99.90
15707;DHT22;7953;54.302;10.128;2022-12-07T15:24:20;0.90;99.90
15707;DHT22;7953;54.302;10.128;2022-12-07T15:26:49;0.90;99.90
15707;DHT22;7953;54.302;10.128;2022-12-07T15:29:17;0.90;99.90
15707;DHT22;7953;54.302;10.128;2022-12-07T15:31:44;0.90;99.90
15707;DHT22;7953;54.302;10.128;2022-12-07T15:34:11;0.80;99.90
15707;DHT22;7953;54.302;10.128;2022-12-07T15:36:38;0.80;99.90
15707;DHT22;7953;54.302;10.128;2022-12-07T15:39:05;0.80;99.90
15707;DHT22;7953;54.302;10.128;2022-12-07T15:41:32;0.80;99.90
15707;DHT22;7953;54.302;10.128;2022-12-07T15:43:58;0.80;99.90
15707;DHT22;7953;54.302;10.128;2022-12-07T15:46:44;0.70;99.90
15707;DHT22;7953;54.302;10.128;2022-12-07T15:49:12;0.80;99.90
15707;DHT22;7953;54.302;10.128;2022-12-07T15:51:40;0.80;99.90
15707;DHT22;7953;54.302;10.128;2022-12-07T15:54:13;0.70;99.90
15707;DHT22;7953;54.302;10.128;2022-12-07T15:56:40;0.70;99.90
15707;DHT22;7953;54.302;10.128;2022-12-07T15:59:07;0.70;99.90
15707;DHT22;7953;54.302;10.128;2022-12-07T16:01:33;0.70;99.90
15707;DHT22;7953;54.302;10.128;2022-12-07T16:04:02;0.70;99.90
15707;DHT22;7953;54.302;10.128;2022-12-07T16:06:29;0.70;99.90
15707;DHT22;7953;54.302;10.128;2022-12-07T16:08:56;0.70;99.90
15707;DHT22;7953;54.302;10.128;2022-12-07T16:11:23;0.60;99.90
15707;DHT22;7953;54.302;10.128;2022-12-07T16:13:49;0.60;99.90
15707;DHT22;7953;54.302;10.128;2022-12-07T16:16:18;0.60;99.90
15707;DHT22;7953;54.302;10.128;2022-12-07T16:18:46;0.60;99.90
15707;DHT22;7953;54.302;10.128;2022-12-07T16:21:15;0.60;99.90
15707;DHT22;7953;54.302;10.128;2022-12-07T16:23:43;0.50;99.90
15707;DHT22;7953;54.302;10.128;2022-12-07T16:26:12;0.50;99.90
15707;DHT22;7953;54.302;10.128;2022-12-07T16:28:39;0.50;99.90
15707;DHT22;7953;54.302;10.128;2022-12-07T16:31:07;0.50;99.90
15707;DHT22;7953;54.302;10.128;2022-12-07T16:33:36;0.40;99.90
15707;DHT22;7953;54.302;10.128;2022-12-07T16:36:04;0.50;99.90
15707;DHT22;7953;54.302;10.128;2022-12-07T16:38:33;0.40;99.90